»·PEaware :: N43XS KTUS-KPSP

N43XS :: KTUS-KPSP

FLIGHT INFORMATION

Flight Status: Arrived
Operator: Privately registered:
United States
More flights under this callsign
Pilot: Daniel B. (44892)
Aircraft: BEECH AIRCRAFT A90-E90 KING AIR
(BE9L)
More flights by this aircraft type
Origin: KTUS Tucson Intl
United States
Destination: KPSP Palm Springs Intl
United States
More flights between these airports :: More routes between these airports
Route: BURRO4 GBN V94 BLH CLOWD1
File this flight plan on PilotEdge
Remarks:
Altitude:
(Current/Filed)
18,000ft
Speed:
(Current/Filed)
210kts
Departed: 20-Aug-23 09:32 PM
Arrived: 20-Aug-23 10:18 PM
Distance/Time
Traveled:
299nm/0:45
Distance/Time
To Go:
Arrived

Flight Plot

Page will automatically refresh every two minutes.

Flight plan parsing failed; only flown route is shown


Map Options




Map Legend


Flown Route
Filed Route
Departure Airport
Arrival Airport
Navaid (VOR, NDB)
Fix

Horizontal Profiles

Position Reports

Time Latitude Longitude Heading Altitude Ground
Speed
20-Aug-23 21:13 32.130086 -110.939815 270 2576ft 0kts
20-Aug-23 21:14 32.130086 -110.939815 270 2576ft 0kts
20-Aug-23 21:15 32.130086 -110.939815 270 2576ft 0kts
20-Aug-23 21:16 32.130086 -110.939815 270 2576ft 0kts
20-Aug-23 21:17 32.130086 -110.939815 270 2576ft 0kts
20-Aug-23 21:18 32.130086 -110.939815 270 2576ft 0kts
20-Aug-23 21:19 32.130086 -110.939815 270 2576ft 0kts
20-Aug-23 21:20 32.130086 -110.939815 270 2576ft 0kts
20-Aug-23 21:21 32.130086 -110.939815 270 2576ft 0kts
20-Aug-23 21:22 32.130086 -110.939815 270 2576ft 0kts
20-Aug-23 21:23 32.130086 -110.939815 270 2576ft 0kts
20-Aug-23 21:24 32.130086 -110.939815 270 2576ft 0kts
20-Aug-23 21:25 32.128755 -110.942874 223 2570ft 18kts
20-Aug-23 21:26 32.125002 -110.947286 224 2572ft 19kts
20-Aug-23 21:27 32.124185 -110.946600 157 2575ft 12kts
20-Aug-23 21:28 32.123465 -110.946590 182 2576ft 0kts
20-Aug-23 21:29 32.123424 -110.946592 179 2577ft 0kts
20-Aug-23 21:30 32.122577 -110.947006 129 2577ft 12kts
20-Aug-23 21:31 32.104973 -110.929511 148 3763ft 89kts
20-Aug-23 21:32 32.086896 -110.907296 131 5410ft 107kts
20-Aug-23 21:33 32.063286 -110.880297 133 7122ft 121kts
20-Aug-23 21:34 32.039253 -110.863072 217 8536ft 150kts
20-Aug-23 21:35 32.019156 -110.899454 214 10557ft 130kts
20-Aug-23 21:36 31.990677 -110.923147 193 12059ft 128kts
20-Aug-23 21:37 31.966221 -110.955345 262 13452ft 182kts
20-Aug-23 21:38 31.990659 -111.011725 283 14937ft 191kts
20-Aug-23 21:39 32.019305 -111.067908 292 16261ft 205kts
20-Aug-23 21:40 32.047258 -111.131241 291 16811ft 244kts
20-Aug-23 21:41 32.085717 -111.205468 307 16813ft 282kts
20-Aug-23 21:42 32.139572 -111.275723 308 16803ft 294kts
20-Aug-23 21:43 32.194898 -111.347973 308 16795ft 298kts
20-Aug-23 21:44 32.250665 -111.421016 308 16811ft 299kts
20-Aug-23 21:45 32.302071 -111.497662 298 16817ft 297kts
20-Aug-23 21:46 32.347706 -111.578627 298 16922ft 293kts
20-Aug-23 21:47 32.392793 -111.658631 297 16918ft 290kts
20-Aug-23 21:48 32.437243 -111.737854 297 16931ft 290kts
20-Aug-23 21:49 32.481737 -111.817151 297 16931ft 288kts
20-Aug-23 21:50 32.525988 -111.896284 297 16926ft 288kts
20-Aug-23 21:51 32.570374 -111.975814 297 16923ft 289kts
20-Aug-23 21:52 32.614820 -112.055602 297 16915ft 290kts
20-Aug-23 21:53 32.659469 -112.135905 297 16904ft 291kts
20-Aug-23 21:54 32.706376 -112.205551 280 17208ft 276kts
20-Aug-23 21:55 32.744244 -112.288256 296 17150ft 291kts
20-Aug-23 21:56 32.791120 -112.367034 289 16947ft 292kts
20-Aug-23 21:57 32.833471 -112.450307 296 16930ft 294kts
20-Aug-23 21:58 32.878177 -112.531877 296 16917ft 294kts
20-Aug-23 21:59 32.922992 -112.613523 296 16902ft 294kts
20-Aug-23 22:00 32.963202 -112.696607 281 16891ft 284kts
20-Aug-23 22:01 32.991171 -112.784697 281 16899ft 283kts
20-Aug-23 22:02 33.018807 -112.872271 280 16895ft 285kts
20-Aug-23 22:03 33.046667 -112.960789 280 16881ft 285kts
20-Aug-23 22:04 33.074447 -113.049316 280 16880ft 286kts
20-Aug-23 22:05 33.102269 -113.138230 281 16880ft 285kts
20-Aug-23 22:06 33.129822 -113.226577 281 16879ft 285kts
20-Aug-23 22:07 33.157384 -113.315108 280 16864ft 284kts
20-Aug-23 22:08 33.184733 -113.403331 281 16862ft 283kts
20-Aug-23 22:09 33.211157 -113.491909 275 16870ft 280kts
20-Aug-23 22:10 33.231136 -113.581665 275 16856ft 280kts
20-Aug-23 22:11 33.243853 -113.640004 275 16815ft 280kts
20-Aug-23 22:12 33.243853 -113.640004 275 16815ft 280kts
20-Aug-23 22:13 33.722841 -116.408983 324 3914ft 184kts
20-Aug-23 22:14 33.762717 -116.446174 324 3002ft 159kts
20-Aug-23 22:15 33.792892 -116.473548 315 1129ft 122kts
20-Aug-23 22:16 33.819792 -116.498755 320 522ft 119kts
20-Aug-23 22:17 33.831726 -116.509542 323 433ft 23kts
20-Aug-23 22:18 33.830586 -116.509130 34 429ft 56kts

Navigation Log

Ident Type
Flight plan parsing failed, navigation log unavailable